Acampo, California
Current Conditions -  °F | °C
As of 8:55 PM on Thursday 30 Oct 2014 (Local Time) from KSCK Reporting Station
Clear Clear  
Wind Chill: 67°   Ceiling: Unl
Heat Index: 67°   Visibility: 10mi
Dew Point: 51°   Wind: 3mph
Humidity: 57%   Direction: 350°N
Pressure: 29.86"   Gusts: NA
Location:  38.17°N, 121.28°W
Report Text: KSCK 310355Z AUTO 35003KT 10SM CLR 19/11 A2986 RMK AO2 SLP110 T01940106
Loading
Personal Weather Stations






























Interactive Weather Map
Tropical Storm Tracking
New forecast layout! Learn more

10-Day Weather Forecast

Advertisements
Track Severe Weather on mobile